หน้าหลัก
METAR-TAF:

METAR-TAF

ท่าอากาศยาน :

ท่าอากาศยานนานาชาติบาห์เรน

ประเทศบาห์เรน, บาห์เรน

ละติจูด: 26-16N, ลองจิจูด: 050-39E, ความสูง: 2 ม.

การสังเกตสภาพอากาศปัจจุบัน

รายงานได้ทำขึ้นเมื่อ 12 นาทีที่แล้ว ณ เวลา 20:00 UTC
ลม 3 นอตจากตะวันออก, แปรผันระหว่างตะวันออกเฉียงเหนือ และตะวันออก/ตะวันออกเฉียงใต้
อุณหภูมิ 30°C
ความชื้น 84%
ความกดอากาศ 1004 hPa
ทัศนวิสัย: 9000 ม.
มีเมฆน้อยที่ความสูง 1000 ฟุต

METAR: OBBI 012000Z 08003KT 050V110 9000 FEW010 30/27 Q1004 NOSIG

เวลา: 23:12 (20:12 UTC)

การพยากรณ์

รายงานได้ทำขึ้นเมื่อ 3 ชั่วโมงและ 12 นาทีที่แล้ว ณ เวลา 17:00 UTC
การพยากรณ์มีผลตั้งแต่วันที่ 01 ณ เวลา 18 UTC จนถึงวันที่ 03 ณ เวลา 00 UTC
ลม 5 นอตจากทิศทางซึ่งแปรผันได้
ทัศนวิสัย 10 กม. หรือมากกว่า
ไม่มีเมฆต่ำกว่า 1,500 ม. และไม่มีเมฆคิวมูโลนิมบัส

TAF: OBBI 011700Z 0118/0300 VRB05KT CAVOK

สังเกตการณ์สภาพอากาศและพยากรณ์อากาศของสนามบินมากกว่า 4000 แห่ง (รายงาน METAR และ TAF).

สถานีที่ดูได้จะแสดงไว้ด้วยจุดสีเหลืองและสีแดงบนแผนที่.

เลื่อนเมาส์ไปเหนือจุดเพื่อดูชื่อสถานี.

แล้วคลิกเพื่อดูสังเกตการณ์และการพยากรณ์สภาพอากาศ.

ในการเปลี่ยนแผนที่: คลิกที่ปุ่มสีเขียวที่มีกากบาทสีดำเพื่อซูมเข้า; ที่ปุ่มสีเขียวที่มีขีดเพื่อซูมออก; หรือที่ลูกศรสีเขียวเพื่อไปยังแผนที่ที่อยู่ติดกัน.


METAR-TAF: